Honokaa, Hawaii
Current Conditions -  °F | °C
As of 7:56 AM on Friday 31 Oct 2014 (Local Time) from PHSF Reporting Station
Clear Clear  
Wind Chill: 56°   Ceiling: Unl
Heat Index: 56°   Visibility: 10mi
Dew Point: 46°   Wind: 8mph
Humidity: 70%   Direction: 120°ESE
Pressure: 30.37"   Gusts: 20mph
Location:  20.07°N, 155.46°W
Report Text: PHSF 311756Z AUTO 12007G17KT 10SM CLR 13/08 A3037 RMK AO2 SLPNO T01310077 10131 20084 $
Loading
Personal Weather Stations






























Interactive Weather Map
Tropical Storm Tracking
New forecast layout! Learn more

10-Day Weather Forecast

Advertisements
Track Severe Weather on mobile